Time;durP1;ratioP1;P1;durP2;ratioP2;P2;SDS_P1;SDS_P2;PMS_P1;PMS_P2;Temp;Humidity;BMP_temperature;BMP_pressure;BME280_temperature;BME280_humidity;BME280_pressure;Samples;Min_cycle;Max_cycle;Signal;HPM_P1;HPM_P2
2022/04/13 00:01:34;;;;;;;3.90;2.83;;;;;;;;;;5094066;28;20204;-82
2022/04/13 00:04:01;;;;;;;2.87;2.57;;;;;;;;;;5093033;28;20578;-82
2022/04/13 00:06:28;;;;;;;3.60;3.13;;;;;;;;;;5093790;28;20660;-82
2022/04/13 00:08:56;;;;;;;4.10;3.17;;;;;;;;;;5093254;28;20224;-82
2022/04/13 00:11:23;;;;;;;3.67;2.70;;;;;;;;;;5093716;28;20200;-82
2022/04/13 00:13:52;;;;;;;2.73;2.53;;;;;;;;;;5093041;28;20224;-82
2022/04/13 00:16:19;;;;;;;3.13;2.67;;;;;;;;;;5093542;28;20600;-82
2022/04/13 00:18:46;;;;;;;2.80;2.60;;;;;;;;;;5093188;28;20249;-81
2022/04/13 00:21:14;;;;;;;24.57;13.03;;;;;;;;;;5093096;28;20287;-82
2022/04/13 00:23:41;;;;;;;24.77;13.80;;;;;;;;;;5092961;28;20196;-81
2022/04/13 00:26:08;;;;;;;24.97;11.37;;;;;;;;;;5093005;28;20202;-82
2022/04/13 00:28:36;;;;;;;20.83;10.17;;;;;;;;;;5093363;28;20193;-82
2022/04/13 00:31:04;;;;;;;18.47;9.70;;;;;;;;;;5092876;28;20208;-82
2022/04/13 00:33:32;;;;;;;17.67;7.83;;;;;;;;;;5092674;28;20192;-82
2022/04/13 00:35:59;;;;;;;13.97;8.53;;;;;;;;;;5092253;28;20224;-82
2022/04/13 00:38:27;;;;;;;9.87;6.03;;;;;;;;;;5092438;28;20181;-83
2022/04/13 00:40:54;;;;;;;8.07;5.30;;;;;;;;;;5092537;28;20244;-82
2022/04/13 00:43:21;;;;;;;4.17;3.63;;;;;;;;;;5093153;28;20196;-82
2022/04/13 00:45:49;;;;;;;3.67;3.20;;;;;;;;;;5092597;28;20184;-81
2022/04/13 00:48:21;;;;;;;3.13;2.83;;;;;;;;;;5092723;28;20200;-82
2022/04/13 00:50:49;;;;;;;4.43;3.27;;;;;;;;;;5092854;28;20177;-82
2022/04/13 00:53:17;;;;;;;3.27;2.97;;;;;;;;;;5092886;28;20269;-81
2022/04/13 00:55:44;;;;;;;3.50;2.70;;;;;;;;;;5092653;28;20227;-82
2022/04/13 00:58:14;;;;;;;3.80;2.93;;;;;;;;;;5092691;28;20251;-82
2022/04/13 01:00:48;;;;;;;3.70;2.73;;;;;;;;;;5092651;28;20203;-82
2022/04/13 01:03:19;;;;;;;4.77;2.67;;;;;;;;;;5092835;28;20291;-82
2022/04/13 01:05:47;;;;;;;2.80;2.57;;;;;;;;;;5092285;28;20193;-82
2022/04/13 01:08:17;;;;;;;3.27;2.93;;;;;;;;;;5092067;28;20214;-81
2022/04/13 01:10:44;;;;;;;3.50;3.20;;;;;;;;;;5092134;28;20611;-82
2022/04/13 01:13:12;;;;;;;7.77;2.97;;;;;;;;;;5092602;28;20636;-82
2022/04/13 01:15:39;;;;;;;4.87;2.77;;;;;;;;;;5091985;28;20224;-82
2022/04/13 01:18:07;;;;;;;5.63;3.23;;;;;;;;;;5092240;28;20231;-82
2022/04/13 01:20:39;;;;;;;3.60;2.60;;;;;;;;;;5092118;28;20207;-82
2022/04/13 01:23:09;;;;;;;2.87;2.57;;;;;;;;;;5092524;28;20242;-82
2022/04/13 01:25:36;;;;;;;3.30;3.00;;;;;;;;;;5092264;28;20279;-82
2022/04/13 01:28:03;;;;;;;3.20;2.90;;;;;;;;;;5092270;28;20629;-82
2022/04/13 01:30:31;;;;;;;4.23;2.60;;;;;;;;;;5091860;28;20204;-82
2022/04/13 01:32:58;;;;;;;3.37;2.80;;;;;;;;;;5092337;28;20227;-82
2022/04/13 01:35:25;;;;;;;4.07;3.40;;;;;;;;;;5091845;28;20715;-82
2022/04/13 01:37:53;;;;;;;4.87;3.07;;;;;;;;;;5091615;28;20234;-82
2022/04/13 01:40:21;;;;;;;4.00;2.67;;;;;;;;;;5091849;28;20287;-82
2022/04/13 01:42:49;;;;;;;3.57;2.90;;;;;;;;;;5092192;28;20317;-82
2022/04/13 01:45:19;;;;;;;6.27;3.30;;;;;;;;;;5091590;28;20203;-82
2022/04/13 01:47:48;;;;;;;4.97;2.80;;;;;;;;;;5092449;28;20191;-82
2022/04/13 01:50:16;;;;;;;3.37;3.07;;;;;;;;;;5096252;28;20273;-82
2022/04/13 01:52:43;;;;;;;2.97;2.77;;;;;;;;;;5096080;28;20192;-82
2022/04/13 01:55:11;;;;;;;3.30;2.70;;;;;;;;;;5096056;28;20288;-82
2022/04/13 01:57:41;;;;;;;4.40;2.20;;;;;;;;;;5095791;28;20231;-82
2022/04/13 02:00:11;;;;;;;2.00;1.90;;;;;;;;;;5095724;28;20200;-81
2022/04/13 02:02:38;;;;;;;3.60;2.90;;;;;;;;;;5095891;28;20188;-82
2022/04/13 02:05:06;;;;;;;2.70;2.50;;;;;;;;;;5092983;28;20200;-81
2022/04/13 02:07:34;;;;;;;3.37;3.07;;;;;;;;;;5096067;28;20196;-82
2022/04/13 02:10:01;;;;;;;4.00;3.10;;;;;;;;;;5095380;28;20286;-82
2022/04/13 02:12:28;;;;;;;2.90;2.70;;;;;;;;;;5095597;28;20651;-82
2022/04/13 02:14:57;;;;;;;3.50;2.10;;;;;;;;;;5095188;28;20715;-82
2022/04/13 02:17:24;;;;;;;5.33;2.80;;;;;;;;;;5095715;28;20227;-82
2022/04/13 02:19:51;;;;;;;3.20;2.67;;;;;;;;;;5095358;28;20196;-82
2022/04/13 02:22:18;;;;;;;2.83;2.60;;;;;;;;;;5095449;28;20681;-82
2022/04/13 02:24:46;;;;;;;2.97;2.77;;;;;;;;;;5095473;28;20192;-82
2022/04/13 02:27:13;;;;;;;3.57;2.87;;;;;;;;;;5095071;28;20227;-82
2022/04/13 02:29:44;;;;;;;2.83;2.57;;;;;;;;;;5095449;28;20200;-82
2022/04/13 02:32:13;;;;;;;5.03;3.00;;;;;;;;;;5095267;28;20189;-82
2022/04/13 02:34:40;;;;;;;3.43;2.93;;;;;;;;;;5094872;28;20692;-82
2022/04/13 02:37:10;;;;;;;2.80;2.60;;;;;;;;;;5094938;28;20314;-82
2022/04/13 02:39:37;;;;;;;3.07;2.80;;;;;;;;;;5095042;28;20676;-83
2022/04/13 02:42:05;;;;;;;7.87;3.10;;;;;;;;;;5095040;28;20287;-82
2022/04/13 02:44:32;;;;;;;3.43;3.13;;;;;;;;;;5094587;28;20253;-82
2022/04/13 02:47:00;;;;;;;5.87;3.10;;;;;;;;;;5095029;28;20278;-83
2022/04/13 02:49:28;;;;;;;3.73;3.07;;;;;;;;;;5095026;28;20204;-82
2022/04/13 02:51:56;;;;;;;4.67;3.33;;;;;;;;;;5094862;28;20199;-82
2022/04/13 02:54:23;;;;;;;4.50;3.97;;;;;;;;;;5094630;28;20653;-83
2022/04/13 02:56:50;;;;;;;7.43;3.70;;;;;;;;;;5094807;28;20668;-82
2022/04/13 02:59:17;;;;;;;4.40;3.23;;;;;;;;;;5093592;28;20291;-82
2022/04/13 03:01:44;;;;;;;8.60;3.60;;;;;;;;;;5094577;28;20604;-82
2022/04/13 03:04:13;;;;;;;3.50;3.20;;;;;;;;;;5094438;28;20206;-82
2022/04/13 03:06:41;;;;;;;3.87;3.40;;;;;;;;;;5094641;28;20200;-82
2022/04/13 03:09:09;;;;;;;4.13;3.80;;;;;;;;;;5094292;28;20205;-82
2022/04/13 03:11:37;;;;;;;5.00;4.47;;;;;;;;;;5094799;28;20200;-82
2022/04/13 03:14:05;;;;;;;7.23;3.87;;;;;;;;;;5094240;28;20214;-83
2022/04/13 03:16:33;;;;;;;4.37;3.83;;;;;;;;;;5094424;28;20311;-83
2022/04/13 03:19:00;;;;;;;4.23;3.57;;;;;;;;;;5093984;28;20211;-82
2022/04/13 03:21:28;;;;;;;5.03;3.70;;;;;;;;;;5094394;28;20207;-83
2022/04/13 03:23:56;;;;;;;6.30;4.07;;;;;;;;;;5094146;28;20207;-82
2022/04/13 03:26:24;;;;;;;6.17;4.03;;;;;;;;;;5094330;28;20197;-83
2022/04/13 03:28:51;;;;;;;4.10;3.63;;;;;;;;;;5094063;28;20204;-82
2022/04/13 03:31:18;;;;;;;4.10;3.53;;;;;;;;;;5094216;28;20235;-82
2022/04/13 03:33:45;;;;;;;4.57;4.17;;;;;;;;;;5090886;28;20649;-82
2022/04/13 03:36:13;;;;;;;3.87;3.57;;;;;;;;;;5093681;28;20236;-82
2022/04/13 03:38:40;;;;;;;4.30;3.90;;;;;;;;;;5093868;28;20200;-82
2022/04/13 03:41:09;;;;;;;4.93;3.83;;;;;;;;;;5093692;28;20726;-83
2022/04/13 03:43:36;;;;;;;3.40;3.10;;;;;;;;;;5093837;28;20200;-83
2022/04/13 03:46:03;;;;;;;2.90;2.60;;;;;;;;;;5093709;28;20192;-83
2022/04/13 03:48:30;;;;;;;3.07;2.80;;;;;;;;;;5093494;28;20291;-83
2022/04/13 03:50:58;;;;;;;3.33;2.60;;;;;;;;;;5093790;28;20254;-83
2022/04/13 03:53:25;;;;;;;2.87;2.67;;;;;;;;;;5093826;28;20714;-83
2022/04/13 03:55:52;;;;;;;4.27;2.60;;;;;;;;;;5092977;28;20227;-83
2022/04/13 03:58:21;;;;;;;3.90;3.00;;;;;;;;;;5093537;28;20201;-83
2022/04/13 04:00:48;;;;;;;3.17;2.97;;;;;;;;;;5093634;28;20203;-83
2022/04/13 04:03:15;;;;;;;3.30;3.10;;;;;;;;;;5093378;28;20282;-83
2022/04/13 04:05:42;;;;;;;4.57;3.37;;;;;;;;;;5093548;28;20200;-83
2022/04/13 04:08:10;;;;;;;4.10;3.70;;;;;;;;;;5093347;28;20287;-84
2022/04/13 04:10:37;;;;;;;3.97;3.67;;;;;;;;;;5092631;28;20204;-82
2022/04/13 04:13:04;;;;;;;4.37;3.50;;;;;;;;;;5093346;28;20196;-82
2022/04/13 04:15:33;;;;;;;4.27;3.93;;;;;;;;;;5091019;28;20224;-82
2022/04/13 04:18:01;;;;;;;5.60;5.10;;;;;;;;;;5093163;28;20287;-81
2022/04/13 04:20:28;;;;;;;8.73;7.80;;;;;;;;;;5093075;28;20200;-82
2022/04/13 04:22:56;;;;;;;13.27;6.93;;;;;;;;;;5093477;28;20200;-82
2022/04/13 04:25:23;;;;;;;19.80;12.87;;;;;;;;;;5093222;28;20576;-83
2022/04/13 04:27:50;;;;;;;13.60;9.77;;;;;;;;;;5093227;28;20631;-82
2022/04/13 04:30:18;;;;;;;9.97;7.87;;;;;;;;;;5092892;28;20203;-82
2022/04/13 04:32:46;;;;;;;5.63;5.13;;;;;;;;;;5093401;28;20231;-82
2022/04/13 04:35:13;;;;;;;8.00;5.80;;;;;;;;;;5092678;28;20199;-82
2022/04/13 04:37:41;;;;;;;11.17;6.87;;;;;;;;;;5092815;28;20232;-82
2022/04/13 04:40:08;;;;;;;5.70;5.07;;;;;;;;;;5091734;28;20646;-82
2022/04/13 04:42:45;;;;;;;6.83;4.40;;;;;;;;;;5091629;28;20696;-82
2022/04/13 04:45:13;;;;;;;5.67;4.63;;;;;;;;;;5092420;28;20191;-82
2022/04/13 04:47:40;;;;;;;6.47;5.43;;;;;;;;;;5093051;28;20203;-82
2022/04/13 04:50:11;;;;;;;4.40;4.00;;;;;;;;;;5091098;28;20579;-82
2022/04/13 04:52:41;;;;;;;23.97;13.77;;;;;;;;;;5092958;28;20566;-82
2022/04/13 04:55:09;;;;;;;44.50;21.93;;;;;;;;;;5092591;28;20188;-82
2022/04/13 04:57:36;;;;;;;23.27;14.43;;;;;;;;;;5092719;28;20192;-83
2022/04/13 05:00:05;;;;;;;17.83;12.67;;;;;;;;;;5092802;28;20188;-82
2022/04/13 05:02:32;;;;;;;6.60;5.63;;;;;;;;;;5092323;28;20189;-82
2022/04/13 05:05:00;;;;;;;4.83;4.20;;;;;;;;;;5092598;28;20639;-82
2022/04/13 05:07:28;;;;;;;5.00;4.60;;;;;;;;;;5092510;28;20766;-82
2022/04/13 05:09:56;;;;;;;11.33;5.73;;;;;;;;;;5092093;28;20672;-81
2022/04/13 05:12:23;;;;;;;5.33;4.87;;;;;;;;;;5092398;28;20271;-81
2022/04/13 05:14:52;;;;;;;7.33;4.73;;;;;;;;;;5092469;28;20200;-82
2022/04/13 05:17:20;;;;;;;6.33;5.27;;;;;;;;;;5092306;28;20227;-82
2022/04/13 05:19:47;;;;;;;6.77;6.07;;;;;;;;;;5091837;28;20680;-82
2022/04/13 05:22:16;;;;;;;5.60;4.40;;;;;;;;;;5091971;28;20203;-82
2022/04/13 05:24:44;;;;;;;5.60;4.73;;;;;;;;;;5091911;28;20689;-82
2022/04/13 05:27:12;;;;;;;5.87;5.37;;;;;;;;;;5092313;28;20290;-82
2022/04/13 05:29:39;;;;;;;5.87;4.83;;;;;;;;;;5091954;28;20706;-82
2022/04/13 05:32:07;;;;;;;5.27;4.37;;;;;;;;;;5092166;28;20199;-82
2022/04/13 05:34:34;;;;;;;5.50;4.80;;;;;;;;;;5091937;28;20196;-82
2022/04/13 05:37:01;;;;;;;6.37;5.47;;;;;;;;;;5091549;28;20330;-81
2022/04/13 05:39:29;;;;;;;6.33;4.30;;;;;;;;;;5092184;28;20203;-82
2022/04/13 05:41:57;;;;;;;5.10;4.10;;;;;;;;;;5091957;28;20208;-82
2022/04/13 05:44:25;;;;;;;5.40;4.90;;;;;;;;;;5092180;28;20269;-82
2022/04/13 05:46:52;;;;;;;4.60;4.23;;;;;;;;;;5091799;28;20677;-82
2022/04/13 05:49:20;;;;;;;6.77;4.67;;;;;;;;;;5092046;28;20249;-82
2022/04/13 05:51:47;;;;;;;4.90;4.40;;;;;;;;;;5092172;28;20239;-81
2022/04/13 05:54:16;;;;;;;8.93;7.33;;;;;;;;;;5091759;28;20200;-82
2022/04/13 05:56:43;;;;;;;8.00;6.53;;;;;;;;;;5091828;28;20227;-82
2022/04/13 05:59:12;;;;;;;12.50;10.17;;;;;;;;;;5091680;28;20227;-82
2022/04/13 06:01:39;;;;;;;14.27;12.77;;;;;;;;;;5091842;28;20207;-82
2022/04/13 06:04:06;;;;;;;9.87;8.93;;;;;;;;;;5091975;28;20764;-82
2022/04/13 06:06:33;;;;;;;6.47;5.57;;;;;;;;;;5091561;28;20192;-82
2022/04/13 06:09:01;;;;;;;5.50;4.60;;;;;;;;;;5091914;28;20669;-82
2022/04/13 06:11:28;;;;;;;6.43;5.83;;;;;;;;;;5091685;28;20292;-82
2022/04/13 06:13:55;;;;;;;5.83;5.30;;;;;;;;;;5091347;28;20196;-82
2022/04/13 06:16:24;;;;;;;6.83;5.33;;;;;;;;;;5091967;28;20307;-83
2022/04/13 06:18:51;;;;;;;8.03;5.60;;;;;;;;;;5091555;28;20203;-82
2022/04/13 06:21:18;;;;;;;9.00;6.00;;;;;;;;;;5091631;28;20196;-82
2022/04/13 06:23:47;;;;;;;5.70;4.67;;;;;;;;;;5091534;28;20200;-81
2022/04/13 06:26:14;;;;;;;4.37;3.97;;;;;;;;;;5091562;28;20196;-82
2022/04/13 06:28:41;;;;;;;6.47;5.63;;;;;;;;;;5091575;28;20287;-81
2022/04/13 06:31:08;;;;;;;5.83;4.97;;;;;;;;;;5091457;28;20290;-82
2022/04/13 06:33:37;;;;;;;4.23;3.93;;;;;;;;;;5091665;28;20287;-82
2022/04/13 06:36:06;;;;;;;4.60;4.17;;;;;;;;;;5094749;28;20322;-82
2022/04/13 06:38:33;;;;;;;3.97;3.67;;;;;;;;;;5095625;28;20211;-82
2022/04/13 06:41:00;;;;;;;14.00;4.17;;;;;;;;;;5095146;28;20231;-82
2022/04/13 06:43:28;;;;;;;8.67;4.67;;;;;;;;;;5095460;28;20207;-82
2022/04/13 06:45:56;;;;;;;7.83;4.40;;;;;;;;;;5095318;28;20714;-82
2022/04/13 06:48:23;;;;;;;4.03;3.43;;;;;;;;;;5094959;28;20204;-82
2022/04/13 06:50:52;;;;;;;4.33;3.60;;;;;;;;;;5095433;28;20583;-82
2022/04/13 06:53:19;;;;;;;4.57;3.77;;;;;;;;;;5094986;28;20211;-82
2022/04/13 06:55:47;;;;;;;4.17;3.37;;;;;;;;;;5094525;28;20193;-82
2022/04/13 06:58:15;;;;;;;3.27;2.97;;;;;;;;;;5095193;28;20561;-82
2022/04/13 07:00:42;;;;;;;5.07;2.97;;;;;;;;;;5094699;28;20290;-82
2022/04/13 07:03:09;;;;;;;3.27;2.70;;;;;;;;;;5094813;28;20207;-82
2022/04/13 07:05:37;;;;;;;3.83;2.63;;;;;;;;;;5094684;28;20284;-82
2022/04/13 07:08:06;;;;;;;4.73;2.70;;;;;;;;;;5095099;28;20222;-82
2022/04/13 07:10:34;;;;;;;4.30;3.90;;;;;;;;;;5094843;28;20283;-82
2022/04/13 07:13:02;;;;;;;3.53;3.23;;;;;;;;;;5094902;28;20283;-82
2022/04/13 07:15:29;;;;;;;3.77;2.80;;;;;;;;;;5094258;28;20207;-82
2022/04/13 07:17:57;;;;;;;4.27;2.70;;;;;;;;;;5094482;28;20224;-82
2022/04/13 07:20:24;;;;;;;3.30;3.00;;;;;;;;;;5094354;28;20200;-82
2022/04/13 07:22:53;;;;;;;5.73;4.63;;;;;;;;;;5094421;28;20196;-82
2022/04/13 07:25:22;;;;;;;9.67;3.33;;;;;;;;;;5094219;28;20698;-82
2022/04/13 07:27:50;;;;;;;5.97;3.53;;;;;;;;;;5094336;28;20192;-82
2022/04/13 07:30:18;;;;;;;4.97;3.70;;;;;;;;;;5094188;28;20214;-82
2022/04/13 07:32:46;;;;;;;3.37;3.07;;;;;;;;;;5094303;28;20196;-82
2022/04/13 07:35:13;;;;;;;5.77;3.63;;;;;;;;;;5094036;28;20203;-82
2022/04/13 07:37:40;;;;;;;3.47;3.00;;;;;;;;;;5094214;28;20615;-83
2022/04/13 07:40:11;;;;;;;5.47;4.97;;;;;;;;;;5093895;28;20192;-82
2022/04/13 07:42:40;;;;;;;4.03;3.57;;;;;;;;;;5094312;28;20660;-83
2022/04/13 07:45:08;;;;;;;4.07;3.07;;;;;;;;;;5094041;28;20595;-83
2022/04/13 07:47:36;;;;;;;4.33;2.83;;;;;;;;;;5093524;28;20194;-83
2022/04/13 07:50:03;;;;;;;5.27;3.40;;;;;;;;;;5093726;28;20190;-82
2022/04/13 07:52:34;;;;;;;3.27;2.97;;;;;;;;;;5093872;28;20205;-83
2022/04/13 07:55:01;;;;;;;4.03;3.17;;;;;;;;;;5093669;28;20185;-83
2022/04/13 07:57:28;;;;;;;6.47;4.67;;;;;;;;;;5093797;28;20233;-83
2022/04/13 07:59:57;;;;;;;6.07;3.10;;;;;;;;;;5093490;28;20287;-82
2022/04/13 08:02:24;;;;;;;3.50;3.20;;;;;;;;;;5093501;28;20200;-82
2022/04/13 08:04:51;;;;;;;5.43;3.13;;;;;;;;;;5093447;28;20201;-82
2022/04/13 08:07:19;;;;;;;3.97;3.67;;;;;;;;;;5093550;28;20668;-82
2022/04/13 08:09:46;;;;;;;4.93;3.50;;;;;;;;;;5093343;28;20200;-82
2022/04/13 08:12:15;;;;;;;5.70;3.90;;;;;;;;;;5093583;28;20587;-83
2022/04/13 08:14:45;;;;;;;20.67;4.70;;;;;;;;;;5093218;28;20202;-83
2022/04/13 08:17:14;;;;;;;10.90;7.80;;;;;;;;;;5093327;28;20258;-83
2022/04/13 08:19:42;;;;;;;10.27;7.30;;;;;;;;;;5093151;28;20242;-82
2022/04/13 08:22:10;;;;;;;4.93;4.53;;;;;;;;;;5093314;28;20201;-83
2022/04/13 08:24:37;;;;;;;13.43;10.67;;;;;;;;;;5092849;28;20291;-83
2022/04/13 08:27:09;;;;;;;4.70;4.30;;;;;;;;;;5093286;28;20192;-82
2022/04/13 08:29:36;;;;;;;5.03;4.30;;;;;;;;;;5093023;28;20195;-82
2022/04/13 08:32:04;;;;;;;23.10;16.13;;;;;;;;;;5093270;28;20675;-82
2022/04/13 08:34:33;;;;;;;10.90;8.10;;;;;;;;;;5092837;28;20288;-83
2022/04/13 08:37:00;;;;;;;8.50;4.30;;;;;;;;;;5092892;28;20332;-83
2022/04/13 08:39:27;;;;;;;5.97;4.27;;;;;;;;;;5093124;28;20274;-83
2022/04/13 08:41:58;;;;;;;4.77;4.03;;;;;;;;;;5093114;28;20699;-83
2022/04/13 08:44:31;;;;;;;4.47;4.07;;;;;;;;;;5092873;28;20183;-83
2022/04/13 08:47:03;;;;;;;9.53;5.30;;;;;;;;;;5093151;28;20213;-84
2022/04/13 08:49:32;;;;;;;9.73;5.80;;;;;;;;;;5092726;28;20181;-83
2022/04/13 08:52:03;;;;;;;7.27;6.57;;;;;;;;;;5092680;28;20287;-83
2022/04/13 08:54:32;;;;;;;7.00;6.30;;;;;;;;;;5092359;28;20279;-83
2022/04/13 08:57:00;;;;;;;7.63;4.70;;;;;;;;;;5092394;28;20299;-83
2022/04/13 08:59:32;;;;;;;9.60;5.30;;;;;;;;;;5092098;28;20196;-83
2022/04/13 09:02:07;;;;;;;9.60;8.60;;;;;;;;;;5092455;28;20287;-83
2022/04/13 09:04:38;;;;;;;7.20;5.30;;;;;;;;;;5092427;28;20709;-83
2022/04/13 09:07:07;;;;;;;7.23;6.47;;;;;;;;;;5092900;28;20183;-83
2022/04/13 09:09:38;;;;;;;7.10;5.07;;;;;;;;;;5092209;28;20200;-83
2022/04/13 09:12:06;;;;;;;10.23;9.17;;;;;;;;;;5092627;28;20218;-83
2022/04/13 09:14:34;;;;;;;12.03;4.73;;;;;;;;;;5092477;28;20299;-83
2022/04/13 09:17:02;;;;;;;5.37;4.87;;;;;;;;;;5092306;28;20224;-83
2022/04/13 09:19:29;;;;;;;5.53;4.77;;;;;;;;;;5092437;28;20259;-82
2022/04/13 09:22:00;;;;;;;6.83;5.10;;;;;;;;;;5092177;28;20209;-83
2022/04/13 09:24:28;;;;;;;4.70;4.23;;;;;;;;;;5092053;28;20201;-83
2022/04/13 09:26:55;;;;;;;4.33;3.93;;;;;;;;;;5092428;28;20643;-83
2022/04/13 09:29:23;;;;;;;8.80;7.47;;;;;;;;;;5092272;28;20196;-83
2022/04/13 09:31:50;;;;;;;5.83;4.80;;;;;;;;;;5092254;28;20207;-83
2022/04/13 09:34:17;;;;;;;4.50;3.70;;;;;;;;;;5091981;28;20248;-83
2022/04/13 09:36:45;;;;;;;6.60;3.53;;;;;;;;;;5091901;28;20318;-83
2022/04/13 09:39:15;;;;;;;5.07;3.57;;;;;;;;;;5091951;28;20203;-83
2022/04/13 09:41:42;;;;;;;5.13;3.67;;;;;;;;;;5092304;28;20251;-83
2022/04/13 09:44:14;;;;;;;5.03;3.63;;;;;;;;;;5092170;28;20731;-83
2022/04/13 09:46:42;;;;;;;4.70;3.63;;;;;;;;;;5091926;28;20200;-83
2022/04/13 09:49:13;;;;;;;4.17;3.37;;;;;;;;;;5091810;28;20206;-83
2022/04/13 09:51:42;;;;;;;4.83;3.70;;;;;;;;;;5092233;28;20598;-83
2022/04/13 09:54:11;;;;;;;5.13;4.63;;;;;;;;;;5091461;28;20201;-83
2022/04/13 09:56:41;;;;;;;6.13;4.30;;;;;;;;;;5092050;28;20554;-83
2022/04/13 09:59:08;;;;;;;8.87;7.50;;;;;;;;;;5091774;28;20269;-84
2022/04/13 10:01:36;;;;;;;4.80;3.97;;;;;;;;;;5091832;28;20202;-83
2022/04/13 10:04:05;;;;;;;4.50;3.33;;;;;;;;;;5091457;28;20200;-83
2022/04/13 10:06:33;;;;;;;4.10;3.00;;;;;;;;;;5091863;28;20719;-83
2022/04/13 10:09:01;;;;;;;5.13;3.27;;;;;;;;;;5092375;28;20235;-83
2022/04/13 10:11:29;;;;;;;3.17;2.60;;;;;;;;;;5095904;28;20195;-83
2022/04/13 10:13:59;;;;;;;6.03;3.27;;;;;;;;;;5095408;28;20200;-83
2022/04/13 10:16:32;;;;;;;2.63;2.43;;;;;;;;;;5096324;28;20196;-83
2022/04/13 10:19:01;;;;;;;2.67;2.47;;;;;;;;;;5095539;28;20303;-83
2022/04/13 10:21:43;;;;;;;2.80;2.60;;;;;;;;;;5095846;28;20382;-84
2022/04/13 10:24:12;;;;;;;3.73;2.67;;;;;;;;;;5095763;28;20199;-84
2022/04/13 10:27:17;;;;;;;2.97;2.40;;;;;;;;;;5095407;28;20193;-84
2022/04/13 10:29:47;;;;;;;2.43;2.23;;;;;;;;;;5095323;28;20196;-84
2022/04/13 10:32:16;;;;;;;3.40;2.80;;;;;;;;;;5095396;28;20192;-83
2022/04/13 10:34:44;;;;;;;5.47;2.70;;;;;;;;;;5094986;28;20291;-84
2022/04/13 10:37:13;;;;;;;3.70;2.50;;;;;;;;;;5095038;28;20327;-84
2022/04/13 10:39:45;;;;;;;4.03;3.63;;;;;;;;;;5095112;28;20235;-84
2022/04/13 10:42:13;;;;;;;2.40;2.20;;;;;;;;;;5095258;28;20682;-84
2022/04/13 10:44:43;;;;;;;3.70;2.57;;;;;;;;;;5094968;28;20570;-84
2022/04/13 10:47:14;;;;;;;2.30;2.10;;;;;;;;;;5095138;28;20204;-84
2022/04/13 10:49:51;;;;;;;3.43;2.00;;;;;;;;;;5094978;28;20196;-84
2022/04/13 10:52:25;;;;;;;2.40;2.20;;;;;;;;;;5095073;28;20218;-84
2022/04/13 10:55:03;;;;;;;1.60;1.50;;;;;;;;;;5095054;28;20282;-84
2022/04/13 10:57:36;;;;;;;2.47;2.20;;;;;;;;;;5095314;28;20211;-84
2022/04/13 11:00:06;;;;;;;2.10;1.93;;;;;;;;;;5094884;28;20177;-84
2022/04/13 11:02:39;;;;;;;2.10;1.90;;;;;;;;;;5094894;28;20239;-84
2022/04/13 11:05:08;;;;;;;3.70;2.50;;;;;;;;;;5094580;28;20187;-84
2022/04/13 11:07:36;;;;;;;3.63;2.30;;;;;;;;;;5094838;28;20202;-84
2022/04/13 11:10:04;;;;;;;3.80;3.47;;;;;;;;;;5094591;28;20195;-84
2022/04/13 11:12:32;;;;;;;5.40;4.10;;;;;;;;;;5094720;28;20207;-84
2022/04/13 11:15:01;;;;;;;8.73;3.27;;;;;;;;;;5094339;28;20200;-84
2022/04/13 11:17:30;;;;;;;3.07;2.77;;;;;;;;;;5094537;28;20218;-84
2022/04/13 11:20:23;;;;;;;3.90;2.53;;;;;;;;;;5094138;28;20195;-84
2022/04/13 11:23:09;;;;;;;4.53;4.10;;;;;;;;;;5079596;28;20195;-84
2022/04/13 11:25:51;;;;;;;4.67;3.43;;;;;;;;;;5094186;28;20193;-84
2022/04/13 11:28:25;;;;;;;5.07;4.57;;;;;;;;;;5094692;28;20195;-84
2022/04/13 11:31:03;;;;;;;2.60;2.40;;;;;;;;;;5094136;28;20243;-84
2022/04/13 11:33:49;;;;;;;6.53;4.37;;;;;;;;;;5094275;28;20200;-84
2022/04/13 11:36:18;;;;;;;6.63;5.30;;;;;;;;;;5093886;28;20608;-84
2022/04/13 11:38:50;;;;;;;4.83;4.20;;;;;;;;;;5094106;28;20741;-84
2022/04/13 11:41:18;;;;;;;16.13;11.60;;;;;;;;;;5094397;28;20625;-84
2022/04/13 11:43:46;;;;;;;3.23;2.93;;;;;;;;;;5093987;28;20251;-84
2022/04/13 11:46:35;;;;;;;6.90;4.50;;;;;;;;;;5093750;28;20229;-84
2022/04/13 11:49:03;;;;;;;6.60;5.63;;;;;;;;;;5093872;28;20187;-84
2022/04/13 11:51:32;;;;;;;3.03;2.50;;;;;;;;;;5093933;28;20666;-84
2022/04/13 11:54:07;;;;;;;6.80;4.73;;;;;;;;;;5093453;28;20197;-84
2022/04/13 11:56:37;;;;;;;9.13;5.30;;;;;;;;;;5094166;28;20677;-83
2022/04/13 11:59:05;;;;;;;6.57;4.37;;;;;;;;;;5093898;28;20709;-84
2022/04/13 12:01:33;;;;;;;7.07;4.63;;;;;;;;;;5093768;28;20236;-84
2022/04/13 12:04:03;;;;;;;4.30;3.37;;;;;;;;;;5093319;28;20284;-84
2022/04/13 12:06:33;;;;;;;10.13;8.70;;;;;;;;;;5093653;28;20245;-84
2022/04/13 12:09:01;;;;;;;14.60;8.53;;;;;;;;;;5093537;28;20654;-83
2022/04/13 12:11:43;;;;;;;3.23;2.83;;;;;;;;;;5093459;28;20197;-84
2022/04/13 12:14:11;;;;;;;4.40;3.00;;;;;;;;;;5093289;28;20202;-84
2022/04/13 12:16:39;;;;;;;3.13;2.80;;;;;;;;;;5093997;28;20625;-84
2022/04/13 12:19:08;;;;;;;3.67;3.30;;;;;;;;;;5093089;28;20233;-84
2022/04/13 12:21:38;;;;;;;6.87;3.90;;;;;;;;;;5093260;28;20193;-84
2022/04/13 12:24:07;;;;;;;3.03;2.10;;;;;;;;;;5093012;28;20224;-84
2022/04/13 12:26:36;;;;;;;1.97;1.77;;;;;;;;;;5093256;28;20744;-84
2022/04/13 12:29:12;;;;;;;2.50;1.87;;;;;;;;;;5093037;28;20203;-84
2022/04/13 12:31:45;;;;;;;2.47;2.10;;;;;;;;;;5093062;28;20284;-84
2022/04/13 12:34:16;;;;;;;2.30;2.10;;;;;;;;;;5092968;28;20225;-84
2022/04/13 12:36:50;;;;;;;4.07;2.93;;;;;;;;;;5093170;28;20298;-84
2022/04/13 12:39:17;;;;;;;3.90;2.70;;;;;;;;;;5092744;28;20208;-84
2022/04/13 12:41:45;;;;;;;3.57;2.40;;;;;;;;;;5093219;28;20658;-84
2022/04/13 12:44:12;;;;;;;2.70;2.23;;;;;;;;;;5092980;28;20619;-84
2022/04/13 12:46:39;;;;;;;2.90;2.30;;;;;;;;;;5092947;28;20253;-84
2022/04/13 12:49:07;;;;;;;4.80;1.93;;;;;;;;;;5092824;28;20275;-84
2022/04/13 12:51:35;;;;;;;2.80;2.00;;;;;;;;;;5092613;28;20200;-84
2022/04/13 12:54:05;;;;;;;4.53;2.03;;;;;;;;;;5092591;28;20198;-84
2022/04/13 12:56:34;;;;;;;4.13;2.00;;;;;;;;;;5092753;28;20192;-84
2022/04/13 12:59:02;;;;;;;2.87;1.97;;;;;;;;;;5092374;28;20241;-84
2022/04/13 13:01:31;;;;;;;34.53;23.80;;;;;;;;;;5092552;28;20289;-84
2022/04/13 13:04:00;;;;;;;4.97;3.50;;;;;;;;;;5092482;28;20208;-84
2022/04/13 13:06:30;;;;;;;28.33;18.67;;;;;;;;;;5092570;28;20205;-84
2022/04/13 13:09:00;;;;;;;3.83;2.80;;;;;;;;;;5092096;28;20219;-84
2022/04/13 13:11:31;;;;;;;2.83;1.97;;;;;;;;;;5092889;28;20635;-84
2022/04/13 13:14:09;;;;;;;6.13;5.47;;;;;;;;;;5092249;28;20210;-84
2022/04/13 13:16:37;;;;;;;4.83;4.00;;;;;;;;;;5092368;28;20198;-84
2022/04/13 13:19:16;;;;;;;2.73;1.87;;;;;;;;;;5092070;28;20227;-84
2022/04/13 13:22:09;;;;;;;1.97;1.77;;;;;;;;;;5092392;28;20650;-84
2022/04/13 13:24:36;;;;;;;4.43;2.10;;;;;;;;;;5092397;28;20210;-84
2022/04/13 13:27:06;;;;;;;1.50;1.40;;;;;;;;;;5092535;28;20238;-85
2022/04/13 13:29:33;;;;;;;2.10;1.57;;;;;;;;;;5091777;28;20199;-84
2022/04/13 13:32:11;;;;;;;3.80;1.83;;;;;;;;;;5092490;28;20198;-84
2022/04/13 13:34:38;;;;;;;6.00;4.60;;;;;;;;;;5092160;28;20191;-84
2022/04/13 13:37:07;;;;;;;3.30;2.47;;;;;;;;;;5092066;28;20287;-84
2022/04/13 13:39:35;;;;;;;8.43;7.63;;;;;;;;;;5091597;28;20234;-84
2022/04/13 13:42:06;;;;;;;4.03;2.53;;;;;;;;;;5092205;28;20199;-84
2022/04/13 13:44:34;;;;;;;4.80;3.60;;;;;;;;;;5091377;28;20190;-84
2022/04/13 13:47:01;;;;;;;3.37;1.90;;;;;;;;;;5092060;28;20285;-84
2022/04/13 13:49:28;;;;;;;1.60;1.50;;;;;;;;;;5091754;28;20195;-84
2022/04/13 13:51:56;;;;;;;2.93;1.50;;;;;;;;;;5091938;28;20207;-84
2022/04/13 13:54:25;;;;;;;1.90;1.80;;;;;;;;;;5091729;28;20207;-84
2022/04/13 13:56:52;;;;;;;2.80;2.60;;;;;;;;;;5092287;28;20191;-84
2022/04/13 13:59:21;;;;;;;1.90;1.67;;;;;;;;;;5091427;28;20776;-84
2022/04/13 14:01:49;;;;;;;5.53;2.00;;;;;;;;;;5092207;28;20195;-84
2022/04/13 14:04:16;;;;;;;1.50;1.40;;;;;;;;;;5091651;28;20204;-84
2022/04/13 14:06:43;;;;;;;2.17;1.97;;;;;;;;;;5091626;28;20204;-85
2022/04/13 14:09:11;;;;;;;2.60;2.43;;;;;;;;;;5091602;28;20746;-84
2022/04/13 14:11:38;;;;;;;3.27;2.93;;;;;;;;;;5091806;28;20204;-85
2022/04/13 14:14:06;;;;;;;2.63;2.00;;;;;;;;;;5091735;28;20209;-84
2022/04/13 14:16:34;;;;;;;3.57;2.07;;;;;;;;;;5091721;28;20691;-84
2022/04/13 14:19:02;;;;;;;3.13;2.27;;;;;;;;;;5091532;28;20304;-84
2022/04/13 14:21:30;;;;;;;2.33;2.10;;;;;;;;;;5092067;28;20258;-84
2022/04/13 14:23:57;;;;;;;3.27;2.00;;;;;;;;;;5091657;28;20197;-84
2022/04/13 14:26:25;;;;;;;2.43;2.13;;;;;;;;;;5091552;28;20196;-85
2022/04/13 14:28:52;;;;;;;2.70;2.50;;;;;;;;;;5091375;28;20201;-84
2022/04/13 14:31:19;;;;;;;3.27;2.13;;;;;;;;;;5091669;28;20220;-84
2022/04/13 14:33:48;;;;;;;8.10;7.30;;;;;;;;;;5091917;28;20201;-84
2022/04/13 14:36:15;;;;;;;5.67;5.17;;;;;;;;;;5091274;28;20257;-85
2022/04/13 14:38:43;;;;;;;3.43;3.13;;;;;;;;;;5091336;28;20272;-84
2022/04/13 14:41:10;;;;;;;8.97;7.17;;;;;;;;;;5091478;28;20585;-84
2022/04/13 14:43:37;;;;;;;9.00;6.40;;;;;;;;;;5091510;28;20754;-84
2022/04/13 14:46:05;;;;;;;17.27;10.97;;;;;;;;;;5091386;28;20190;-84
2022/04/13 14:48:32;;;;;;;11.27;7.73;;;;;;;;;;5091283;28;20204;-84
2022/04/13 14:51:01;;;;;;;4.30;2.17;;;;;;;;;;5091549;28;20314;-84